SKPE/PEI METAR and TAF weather

Enter ICAO airport designator
Station Type Date Time Source
SKPE METAR 2021/07/30 04:00 UTC NOAA

SKPE 300400Z 00000KT 9999 BKN018 20/18 Q1019 RMK A3010


Station Type Date Time Source
SKPE Decoded METAR 2021/07/30 04:00 UTC NOAA

Pereira / Matecana, Colombia (SKPE) 04-49N 075-44W 1342M
Jul 30, 2021 - 12:00 AM EDT / 2021.07.30 0400 UTC
Wind: Calm:0
Visibility: greater than 7 mile(s):0
Sky conditions: mostly cloudy
Temperature: 68 F (20 C)
Dew Point: 64 F (18 C)
Relative Humidity: 88%
Pressure (altimeter): 30.09 in. Hg (1019 hPa)
ob: SKPE 300400Z 00000KT 9999 BKN018 20/18 Q1019 RMK A3010
cycle: 4

Station Type Date Time Source
SKPE TAF 2021/07/30 06:36 UTC NOAA

TAF SKPE 300430Z 3006/3106 VRB03KT 9999 SCT017
TEMPO 3019/3023 SCT017TCU TX27/3020Z TN18/3010Z

Example: see airport list